Portada
METAR-TAF:

METAR-TAF

Aeropuertos :

Aeropuerto de Rabat-Salé

Rabat, Marruecos

latitud: 34-03N, longitud: 006-46W, altitud: 84 m

Observación

El informe se hizo hace 27 minutos, a las 19:00 UTC
Viento calma
Temperatura 21°C
Humedad 88%
Presión 1018 hPa
Visibilidad: 5000 m
Cielo nuboso a una altura de 1300 ft

METAR: GMME 201900Z 00000KT 5000 BKN013 21/19 Q1018 NOSIG

Hora: 20:27 (19:27 UTC)

Pronóstico

El informe se hizo hace 2 horas y 27 minutos, a las 17:00 UTC
Pronóstico válido del 20 a las 18 UTC al 21 a las 24 UTC
Viento 10 kt del oeste
Visibilidad: 6000 m
Temporalmente
del 21 a las 01 UTC al 21 a las 07 UTC
Viento 2 kt con dirección variable
Visibilidad: 3000 m
Cielo nuboso a una altura de 600 ft
neblina

TAF: GMME 201700Z 2018/2124 26010KT 6000 NSC TEMPO 2101/2107 VRB02KT 3000 BR BKN006

Observaciones y pronósticos meteorológicos de más de 4000 aeropuertos (mensajes METAR y TAF).

Los puntos amarillos y rojos representan las estaciones disponibles.

Ponga el ratón en el punto deseado para ver el nombre de la estación.

Haga clic para ver las observaciones y los pronósticos meteorológicos.

Para cambiar el mapa : haga clic en los botones verdes con una cruz de color negro para hacer un zoom, en el botón verde con un guión para alejar o en las flechas verdes para mapas adyacentes.


METAR-TAF: